createdAt,value
2023-04-30T00:00:00.186Z,3.23
2023-04-30T00:02:27.608Z,3.00
2023-04-30T00:04:55.250Z,3.13
2023-04-30T00:07:22.648Z,3.50
2023-04-30T00:09:51.420Z,3.57
2023-04-30T00:12:18.863Z,3.33
2023-04-30T00:14:46.167Z,3.40
2023-04-30T00:17:13.644Z,3.57
2023-04-30T00:19:41.046Z,3.63
2023-04-30T00:22:08.829Z,3.73
2023-04-30T00:24:36.333Z,3.93
2023-04-30T00:27:03.616Z,3.20
2023-04-30T00:29:30.913Z,3.47
2023-04-30T00:31:58.750Z,3.70
2023-04-30T00:34:26.156Z,4.47
2023-04-30T00:36:53.579Z,3.87
2023-04-30T00:39:20.980Z,3.87
2023-04-30T00:41:48.243Z,3.20
2023-04-30T00:44:15.681Z,3.57
2023-04-30T00:46:43.035Z,3.60
2023-04-30T00:49:10.383Z,4.13
2023-04-30T00:51:40.213Z,4.20
2023-04-30T00:54:08.061Z,3.93
2023-04-30T00:56:36.082Z,4.10
2023-04-30T00:59:03.631Z,3.57
2023-04-30T01:01:31.833Z,4.30
2023-04-30T01:04:01.010Z,3.70
2023-04-30T01:06:28.799Z,3.80
2023-04-30T01:08:57.356Z,3.80
2023-04-30T01:11:24.763Z,4.20
2023-04-30T01:13:56.162Z,4.50
2023-04-30T01:16:24.541Z,4.03
2023-04-30T01:18:55.757Z,4.10
2023-04-30T01:21:24.583Z,4.13
2023-04-30T01:24:04.594Z,3.87
2023-04-30T01:26:52.345Z,4.10
2023-04-30T01:29:23.523Z,3.23
2023-04-30T01:31:51.145Z,3.53
2023-04-30T01:34:18.595Z,4.20
2023-04-30T01:37:04.731Z,4.30
2023-04-30T01:39:50.972Z,3.60
2023-04-30T01:42:22.474Z,4.03
2023-04-30T01:44:55.454Z,3.80
2023-04-30T01:47:40.546Z,3.63
2023-04-30T01:50:17.010Z,4.03
2023-04-30T01:52:49.443Z,3.70
2023-04-30T01:55:22.931Z,4.03
2023-04-30T01:57:57.599Z,3.57
2023-04-30T02:00:26.453Z,3.80
2023-04-30T02:02:56.273Z,3.87
2023-04-30T02:05:23.667Z,4.27
2023-04-30T02:07:51.713Z,3.93
2023-04-30T02:10:21.209Z,3.70
2023-04-30T02:12:48.738Z,4.00
2023-04-30T02:15:16.299Z,4.13
2023-04-30T02:17:43.773Z,4.20
2023-04-30T02:20:12.398Z,4.27
2023-04-30T02:22:39.813Z,3.70
2023-04-30T02:25:07.538Z,4.10
2023-04-30T02:27:35.175Z,4.40
2023-04-30T02:30:03.178Z,3.50
2023-04-30T02:32:30.825Z,4.53
2023-04-30T02:34:58.250Z,4.40
2023-04-30T02:37:26.396Z,3.63
2023-04-30T02:39:54.629Z,3.60
2023-04-30T02:42:22.206Z,4.07
2023-04-30T02:44:49.993Z,4.50
2023-04-30T02:47:17.393Z,4.23
2023-04-30T02:49:44.686Z,4.33
2023-04-30T02:52:12.949Z,5.33
2023-04-30T02:54:40.403Z,4.03
2023-04-30T02:57:07.696Z,4.30
2023-04-30T02:59:35.120Z,4.13
2023-04-30T03:02:02.568Z,3.90
2023-04-30T03:04:30.890Z,4.40
2023-04-30T03:06:58.235Z,3.80
2023-04-30T03:09:25.665Z,4.17
2023-04-30T03:11:52.965Z,3.70
2023-04-30T03:14:20.312Z,3.80
2023-04-30T03:16:47.859Z,3.90
2023-04-30T03:19:15.635Z,4.33
2023-04-30T03:21:42.916Z,4.33
2023-04-30T03:24:10.275Z,4.37
2023-04-30T03:26:37.649Z,3.63
2023-04-30T03:29:05.252Z,3.80
2023-04-30T03:31:32.701Z,4.20
2023-04-30T03:34:00.240Z,4.10
2023-04-30T03:36:27.751Z,4.40
2023-04-30T03:38:55.289Z,3.90
2023-04-30T03:41:24.276Z,4.23
2023-04-30T03:43:51.800Z,3.90
2023-04-30T03:46:19.834Z,3.80
2023-04-30T03:48:48.718Z,4.50
2023-04-30T03:51:16.047Z,3.63
2023-04-30T03:53:43.387Z,4.10
2023-04-30T03:56:11.411Z,3.90
2023-04-30T03:58:38.815Z,3.97
2023-04-30T04:01:06.282Z,3.17
2023-04-30T04:03:35.558Z,3.50
2023-04-30T04:06:03.619Z,3.53
2023-04-30T04:08:32.640Z,4.00
2023-04-30T04:11:00.001Z,3.83
2023-04-30T04:13:27.430Z,3.40
2023-04-30T04:15:54.966Z,3.10
2023-04-30T04:18:22.624Z,3.57
2023-04-30T04:20:49.968Z,3.13
2023-04-30T04:23:17.622Z,3.43
2023-04-30T04:25:46.574Z,3.20
2023-04-30T04:28:14.287Z,3.30
2023-04-30T04:30:41.818Z,3.00
2023-04-30T04:33:09.253Z,3.00
2023-04-30T04:35:37.343Z,3.57
2023-04-30T04:38:04.940Z,3.27
2023-04-30T04:40:35.480Z,3.60
2023-04-30T04:43:03.065Z,3.00
2023-04-30T04:45:31.712Z,3.03
2023-04-30T04:47:59.108Z,3.10
2023-04-30T04:50:27.973Z,2.93
2023-04-30T04:52:55.343Z,3.27
2023-04-30T04:55:23.221Z,3.70
2023-04-30T04:57:50.665Z,3.10
2023-04-30T05:00:19.091Z,3.53
2023-04-30T05:02:46.483Z,2.90
2023-04-30T05:05:13.939Z,2.70
2023-04-30T05:07:41.426Z,2.80
2023-04-30T05:10:09.382Z,2.40
2023-04-30T05:12:36.660Z,2.40
2023-04-30T05:15:04.695Z,2.67
2023-04-30T05:17:32.189Z,2.80
2023-04-30T05:19:59.529Z,2.63
2023-04-30T05:22:26.861Z,2.70
2023-04-30T05:24:54.385Z,2.97
2023-04-30T05:27:21.842Z,2.63
2023-04-30T05:29:49.106Z,2.53
2023-04-30T05:32:16.490Z,2.13
2023-04-30T05:34:43.980Z,3.10
2023-04-30T05:37:12.673Z,2.60
2023-04-30T05:39:39.956Z,2.50
2023-04-30T05:42:07.426Z,3.10
2023-04-30T05:44:34.768Z,2.87
2023-04-30T05:47:02.199Z,2.93
2023-04-30T05:49:30.070Z,2.50
2023-04-30T05:51:57.527Z,3.13
2023-04-30T05:54:24.887Z,2.83
2023-04-30T05:56:52.173Z,2.70
2023-04-30T05:59:19.600Z,2.67
2023-04-30T06:01:47.167Z,2.67
2023-04-30T06:04:14.485Z,2.53
2023-04-30T06:06:41.864Z,3.10
2023-04-30T06:09:09.951Z,2.73
2023-04-30T06:11:37.577Z,3.00
2023-04-30T06:14:04.972Z,2.50
2023-04-30T06:16:32.399Z,2.33
2023-04-30T06:18:59.762Z,2.40
2023-04-30T06:21:27.089Z,2.40
2023-04-30T06:23:54.453Z,2.33
2023-04-30T06:26:21.886Z,2.80
2023-04-30T06:28:49.311Z,2.83
2023-04-30T06:31:16.729Z,2.73
2023-04-30T06:33:44.114Z,3.23
2023-04-30T06:36:11.484Z,2.70
2023-04-30T06:38:38.794Z,2.67
2023-04-30T06:41:06.172Z,2.77
2023-04-30T06:43:33.491Z,2.60
2023-04-30T06:46:00.970Z,2.27
2023-04-30T06:48:28.316Z,3.40
2023-04-30T06:50:55.606Z,2.60
2023-04-30T06:53:22.892Z,2.73
2023-04-30T06:55:50.832Z,2.87
2023-04-30T06:58:18.876Z,2.60
2023-04-30T07:00:46.197Z,2.57
2023-04-30T07:03:14.104Z,2.47
2023-04-30T07:05:42.120Z,2.80
2023-04-30T07:08:09.599Z,3.20
2023-04-30T07:10:37.008Z,2.23
2023-04-30T07:13:04.455Z,2.20
2023-04-30T07:15:31.777Z,2.73
2023-04-30T07:17:59.149Z,2.30
2023-04-30T07:20:26.926Z,2.23
2023-04-30T07:22:55.688Z,2.90
2023-04-30T07:25:23.102Z,2.63
2023-04-30T07:27:53.045Z,2.70
2023-04-30T07:30:20.935Z,2.70
2023-04-30T07:32:50.222Z,2.83
2023-04-30T07:35:17.977Z,2.50
2023-04-30T07:37:45.711Z,2.33
2023-04-30T07:40:15.203Z,2.50
2023-04-30T07:42:46.820Z,2.37
2023-04-30T07:45:14.142Z,2.30
2023-04-30T07:47:41.514Z,2.13
2023-04-30T07:50:09.115Z,2.50
2023-04-30T07:52:36.512Z,2.57
2023-04-30T07:55:03.883Z,2.40
2023-04-30T07:57:31.198Z,2.30
2023-04-30T07:59:58.668Z,2.37
2023-04-30T08:02:26.786Z,2.13
2023-04-30T08:04:54.190Z,2.30
2023-04-30T08:07:22.384Z,2.03
2023-04-30T08:09:49.807Z,2.20
2023-04-30T08:12:18.042Z,2.10
2023-04-30T08:14:45.467Z,2.27
2023-04-30T08:17:12.972Z,2.30
2023-04-30T08:19:40.456Z,2.47
2023-04-30T08:22:08.031Z,1.77
2023-04-30T08:24:35.537Z,2.50
2023-04-30T08:27:04.057Z,1.70
2023-04-30T08:29:31.488Z,2.20
2023-04-30T08:32:04.190Z,2.63
2023-04-30T08:34:31.720Z,2.30
2023-04-30T08:36:59.118Z,1.93
2023-04-30T08:39:26.544Z,2.10
2023-04-30T08:41:59.513Z,2.13
2023-04-30T08:44:28.177Z,2.17
2023-04-30T08:46:56.225Z,1.83
2023-04-30T08:49:24.898Z,2.50
2023-04-30T08:51:53.928Z,2.20
2023-04-30T08:54:21.720Z,2.10
2023-04-30T08:56:49.050Z,2.00
2023-04-30T08:59:16.387Z,2.00
2023-04-30T09:01:44.185Z,2.17
2023-04-30T09:04:11.765Z,2.30
2023-04-30T09:06:39.334Z,2.10
2023-04-30T09:09:11.540Z,1.90
2023-04-30T09:11:39.033Z,2.00
2023-04-30T09:14:06.362Z,2.40
2023-04-30T09:16:54.261Z,2.27
2023-04-30T09:19:29.167Z,2.67
2023-04-30T09:21:56.706Z,2.07
2023-04-30T09:24:24.292Z,2.30
2023-04-30T09:26:52.348Z,2.13
2023-04-30T09:29:19.852Z,2.40
2023-04-30T09:31:47.873Z,2.20
2023-04-30T09:34:16.258Z,2.10
2023-04-30T09:36:56.600Z,1.90
2023-04-30T09:39:24.139Z,2.00
2023-04-30T09:41:52.319Z,1.73
2023-04-30T09:44:33.053Z,1.67
2023-04-30T09:47:00.399Z,1.97
2023-04-30T09:49:28.584Z,2.17
2023-04-30T09:51:57.160Z,1.97
2023-04-30T09:54:27.598Z,2.07
2023-04-30T09:56:56.409Z,1.70
2023-04-30T09:59:25.628Z,2.50
2023-04-30T10:01:53.106Z,1.60
2023-04-30T10:04:22.230Z,1.80
2023-04-30T10:06:53.263Z,1.97
2023-04-30T10:09:20.741Z,2.00
2023-04-30T10:11:48.706Z,1.80
2023-04-30T10:14:19.118Z,1.90
2023-04-30T10:16:54.688Z,1.93
2023-04-30T10:19:26.354Z,2.13
2023-04-30T10:21:56.763Z,2.07
2023-04-30T10:24:24.513Z,1.70
2023-04-30T10:26:51.993Z,1.50
2023-04-30T10:29:19.721Z,1.80
2023-04-30T10:31:49.937Z,2.10
2023-04-30T10:34:30.860Z,1.53
2023-04-30T10:37:00.646Z,1.60
2023-04-30T10:39:28.943Z,1.97
2023-04-30T10:42:03.823Z,2.17
2023-04-30T10:44:35.369Z,1.80
2023-04-30T10:47:03.532Z,1.77
2023-04-30T10:49:31.685Z,1.60
2023-04-30T10:52:04.614Z,1.60
2023-04-30T10:54:33.174Z,1.60
2023-04-30T10:57:11.825Z,1.97
2023-04-30T10:59:39.646Z,1.80
2023-04-30T11:02:07.360Z,1.77
2023-04-30T11:04:34.771Z,1.73
2023-04-30T11:07:06.463Z,1.73
2023-04-30T11:09:44.447Z,1.73
2023-04-30T11:12:13.051Z,1.93
2023-04-30T11:14:44.767Z,1.47
2023-04-30T11:17:12.993Z,1.30
2023-04-30T11:19:48.836Z,1.60
2023-04-30T11:22:17.025Z,1.40
2023-04-30T11:24:51.286Z,1.70
2023-04-30T11:27:23.116Z,1.50
2023-04-30T11:29:51.916Z,1.77
2023-04-30T11:32:23.815Z,1.60
2023-04-30T11:34:51.844Z,1.90
2023-04-30T11:37:30.074Z,1.63
2023-04-30T11:39:58.394Z,1.53
2023-04-30T11:42:25.798Z,1.70
2023-04-30T11:44:53.194Z,1.70
2023-04-30T11:47:20.692Z,2.07
2023-04-30T11:49:53.100Z,1.60
2023-04-30T11:52:22.080Z,1.73
2023-04-30T11:54:49.438Z,2.17
2023-04-30T11:57:16.829Z,2.00
2023-04-30T11:59:44.341Z,1.80
2023-04-30T12:02:15.404Z,1.70
2023-04-30T12:04:44.877Z,1.67
2023-04-30T12:07:13.152Z,1.63
2023-04-30T12:09:54.228Z,1.57
2023-04-30T12:12:28.627Z,2.00
2023-04-30T12:14:56.266Z,1.43
2023-04-30T12:17:34.306Z,1.60
2023-04-30T12:20:02.146Z,2.00
2023-04-30T12:22:29.841Z,1.90
2023-04-30T12:24:57.880Z,1.60
2023-04-30T12:27:25.445Z,1.53
2023-04-30T12:29:54.918Z,1.77
2023-04-30T12:32:36.107Z,1.70
2023-04-30T12:35:05.057Z,1.73
2023-04-30T12:37:33.093Z,1.67
2023-04-30T12:40:01.390Z,1.60
2023-04-30T12:42:36.341Z,1.80
2023-04-30T12:45:03.935Z,1.30
2023-04-30T12:47:31.602Z,1.83
2023-04-30T12:49:59.399Z,1.40
2023-04-30T12:52:31.356Z,1.40
2023-04-30T12:55:14.922Z,1.27
2023-04-30T12:57:42.546Z,1.43
2023-04-30T13:00:10.496Z,1.27
2023-04-30T13:02:38.100Z,1.40
2023-04-30T13:05:05.588Z,1.27
2023-04-30T13:07:40.787Z,1.13
2023-04-30T13:10:08.466Z,1.23
2023-04-30T13:12:36.068Z,1.63
2023-04-30T13:15:03.972Z,1.60
2023-04-30T13:17:33.031Z,1.80
2023-04-30T13:20:07.070Z,1.47
2023-04-30T13:22:34.423Z,1.30
2023-04-30T13:25:01.716Z,1.27
2023-04-30T13:27:29.458Z,1.40
2023-04-30T13:29:57.795Z,1.43
2023-04-30T13:32:25.593Z,1.40
2023-04-30T13:34:55.149Z,1.27
2023-04-30T13:37:22.450Z,1.60
2023-04-30T13:39:49.904Z,1.40
2023-04-30T13:42:17.534Z,1.87
2023-04-30T13:44:45.725Z,1.47
2023-04-30T13:47:13.221Z,1.47
2023-04-30T13:49:40.676Z,1.57
2023-04-30T13:52:08.532Z,1.20
2023-04-30T13:54:38.790Z,1.33
2023-04-30T13:57:07.500Z,1.30
2023-04-30T13:59:34.838Z,1.73
2023-04-30T14:02:02.307Z,1.40
2023-04-30T14:04:30.970Z,1.47
2023-04-30T14:06:58.497Z,1.50
2023-04-30T14:09:27.101Z,1.10
2023-04-30T14:11:56.087Z,1.30
2023-04-30T14:14:23.419Z,1.10
2023-04-30T14:16:51.250Z,1.13
2023-04-30T14:19:18.680Z,1.00
2023-04-30T14:21:46.923Z,1.27
2023-04-30T14:24:15.720Z,1.00
2023-04-30T14:26:43.466Z,1.50
2023-04-30T14:29:12.775Z,1.00
2023-04-30T14:31:44.180Z,0.90
2023-04-30T14:34:12.091Z,1.00
2023-04-30T14:36:42.095Z,1.00
2023-04-30T14:39:12.215Z,0.87
2023-04-30T14:41:39.791Z,1.00
2023-04-30T14:44:07.390Z,1.27
2023-04-30T14:46:35.046Z,1.10
2023-04-30T14:49:02.768Z,1.17
2023-04-30T14:51:30.655Z,1.00
2023-04-30T14:53:57.996Z,1.40
2023-04-30T14:56:25.850Z,1.10
2023-04-30T14:58:53.558Z,1.40
2023-04-30T15:01:21.665Z,1.20
2023-04-30T15:03:49.230Z,0.93
2023-04-30T15:06:16.829Z,1.20
2023-04-30T15:08:44.351Z,1.10
2023-04-30T15:11:13.222Z,1.40
2023-04-30T15:13:40.529Z,1.10
2023-04-30T15:16:08.033Z,1.07
2023-04-30T15:18:35.668Z,1.20
2023-04-30T15:21:03.014Z,1.20
2023-04-30T15:23:30.714Z,0.90
2023-04-30T15:25:58.263Z,1.20
2023-04-30T15:28:25.613Z,1.10
2023-04-30T15:30:53.061Z,1.10
2023-04-30T15:33:23.173Z,1.03
2023-04-30T15:35:50.551Z,1.10
2023-04-30T15:38:17.806Z,1.20
2023-04-30T15:40:45.212Z,1.20
2023-04-30T15:43:12.592Z,1.30
2023-04-30T15:45:40.130Z,1.00
2023-04-30T15:48:07.559Z,1.30
2023-04-30T15:50:34.867Z,1.13
2023-04-30T15:53:02.224Z,1.03
2023-04-30T15:55:29.599Z,1.20
2023-04-30T15:57:57.872Z,0.90
2023-04-30T16:00:27.137Z,1.17
2023-04-30T16:02:54.794Z,1.20
2023-04-30T16:05:22.349Z,1.20
2023-04-30T16:07:51.332Z,1.37
2023-04-30T16:10:19.970Z,1.20
2023-04-30T16:12:47.270Z,1.13
2023-04-30T16:15:14.582Z,1.10
2023-04-30T16:17:41.911Z,1.07
2023-04-30T16:20:09.610Z,1.00
2023-04-30T16:22:37.332Z,1.13
2023-04-30T16:25:04.959Z,1.10
2023-04-30T16:27:34.087Z,1.10
2023-04-30T16:30:03.272Z,1.20
2023-04-30T16:32:30.722Z,1.20
2023-04-30T16:34:58.088Z,1.10
2023-04-30T16:37:26.548Z,1.20
2023-04-30T16:39:53.974Z,1.10
2023-04-30T16:42:23.722Z,1.20
2023-04-30T16:44:51.057Z,1.10
2023-04-30T16:47:19.559Z,1.10
2023-04-30T16:49:47.147Z,1.20
2023-04-30T16:52:14.761Z,1.30
2023-04-30T16:54:42.031Z,1.20
2023-04-30T16:57:09.497Z,1.43
2023-04-30T16:59:37.070Z,1.50
2023-04-30T17:02:04.880Z,1.50
2023-04-30T17:04:32.679Z,1.47
2023-04-30T17:07:00.433Z,1.40
2023-04-30T17:09:27.865Z,1.40
2023-04-30T17:11:55.225Z,1.10
2023-04-30T17:14:22.617Z,1.20
2023-04-30T17:16:49.903Z,1.30
2023-04-30T17:19:18.074Z,1.20
2023-04-30T17:21:45.403Z,1.30
2023-04-30T17:24:12.702Z,1.20
2023-04-30T17:26:40.082Z,4.33
2023-04-30T17:29:07.655Z,1.63
2023-04-30T17:31:38.071Z,1.60
2023-04-30T17:34:05.451Z,1.73
2023-04-30T17:36:32.728Z,1.80
2023-04-30T17:39:02.957Z,1.67
2023-04-30T17:41:30.354Z,1.40
2023-04-30T17:43:58.111Z,1.63
2023-04-30T17:46:25.461Z,1.63
2023-04-30T17:48:52.787Z,1.67
2023-04-30T17:51:20.257Z,1.40
2023-04-30T17:53:47.546Z,1.50
2023-04-30T17:56:15.125Z,1.30
2023-04-30T17:58:42.452Z,1.47
2023-04-30T18:01:09.976Z,1.30
2023-04-30T18:03:37.482Z,1.40
2023-04-30T18:06:04.910Z,1.50
2023-04-30T18:08:32.353Z,1.40
2023-04-30T18:10:59.779Z,1.50
2023-04-30T18:13:27.497Z,1.40
2023-04-30T18:15:55.143Z,1.20
2023-04-30T18:18:22.836Z,1.10
2023-04-30T18:20:51.183Z,1.20
2023-04-30T18:23:18.725Z,1.40
2023-04-30T18:25:50.289Z,1.40
2023-04-30T18:28:18.534Z,1.40
2023-04-30T18:30:46.072Z,1.30
2023-04-30T18:33:13.519Z,1.27
2023-04-30T18:35:41.126Z,1.37
2023-04-30T18:38:11.253Z,1.30
2023-04-30T18:40:39.232Z,1.17
2023-04-30T18:43:06.893Z,1.30
2023-04-30T18:45:34.226Z,1.30
2023-04-30T18:48:01.582Z,1.30
2023-04-30T18:50:29.095Z,1.20
2023-04-30T18:52:56.651Z,1.20
2023-04-30T18:55:24.272Z,1.37
2023-04-30T18:57:51.681Z,0.90
2023-04-30T19:00:18.979Z,1.50
2023-04-30T19:02:46.443Z,1.40
2023-04-30T19:05:14.638Z,1.07
2023-04-30T19:07:41.965Z,1.20
2023-04-30T19:10:09.603Z,1.40
2023-04-30T19:12:37.391Z,1.30
2023-04-30T19:15:08.530Z,1.23
2023-04-30T19:17:36.722Z,1.33
2023-04-30T19:20:04.149Z,1.20
2023-04-30T19:22:31.650Z,1.60
2023-04-30T19:24:58.994Z,1.60
2023-04-30T19:27:26.517Z,1.53
2023-04-30T19:29:54.597Z,1.30
2023-04-30T19:32:22.292Z,1.60
2023-04-30T19:34:49.609Z,1.83
2023-04-30T19:37:17.024Z,1.37
2023-04-30T19:39:44.352Z,1.40
2023-04-30T19:42:11.692Z,1.67
2023-04-30T19:44:39.017Z,1.40
2023-04-30T19:47:06.352Z,1.40
2023-04-30T19:49:34.867Z,1.30
2023-04-30T19:52:02.348Z,1.57
2023-04-30T19:54:29.706Z,1.23
2023-04-30T19:56:58.075Z,1.13
2023-04-30T19:59:26.872Z,1.40
2023-04-30T20:01:54.451Z,1.20
2023-04-30T20:04:22.501Z,1.20
2023-04-30T20:06:56.835Z,1.20
2023-04-30T20:09:24.865Z,1.10
2023-04-30T20:11:52.172Z,1.20
2023-04-30T20:14:19.626Z,1.10
2023-04-30T20:16:52.278Z,1.40
2023-04-30T20:19:19.673Z,1.40
2023-04-30T20:21:49.232Z,1.20
2023-04-30T20:24:16.576Z,1.37
2023-04-30T20:26:43.873Z,1.13
2023-04-30T20:29:11.519Z,1.37
2023-04-30T20:31:39.133Z,1.30
2023-04-30T20:34:06.639Z,1.43
2023-04-30T20:36:34.296Z,1.63
2023-04-30T20:39:01.616Z,1.37
2023-04-30T20:41:29.668Z,1.37
2023-04-30T20:43:59.881Z,1.33
2023-04-30T20:46:28.378Z,1.40
2023-04-30T20:49:01.312Z,1.40
2023-04-30T20:51:28.757Z,1.40
2023-04-30T20:53:56.021Z,1.30
2023-04-30T20:56:24.270Z,1.27
2023-04-30T20:58:51.594Z,1.60
2023-04-30T21:01:18.926Z,1.67
2023-04-30T21:03:46.269Z,1.60
2023-04-30T21:06:15.907Z,1.30
2023-04-30T21:08:43.468Z,1.60
2023-04-30T21:11:11.228Z,1.50
2023-04-30T21:13:38.686Z,1.40
2023-04-30T21:16:06.324Z,1.60
2023-04-30T21:18:33.711Z,1.30
2023-04-30T21:21:07.592Z,1.50
2023-04-30T21:23:35.223Z,1.43
2023-04-30T21:26:02.832Z,1.30
2023-04-30T21:28:30.153Z,1.63
2023-04-30T21:30:57.943Z,1.60
2023-04-30T21:33:25.424Z,1.60
2023-04-30T21:35:52.770Z,1.77
2023-04-30T21:38:20.091Z,1.90
2023-04-30T21:40:47.567Z,1.50
2023-04-30T21:43:14.990Z,1.47
2023-04-30T21:45:43.513Z,1.70
2023-04-30T21:48:11.150Z,1.57
2023-04-30T21:50:38.753Z,1.37
2023-04-30T21:53:06.175Z,1.60
2023-04-30T21:55:33.602Z,1.63
2023-04-30T21:58:00.915Z,1.67
2023-04-30T22:00:28.499Z,1.60
2023-04-30T22:02:55.851Z,1.47
2023-04-30T22:05:23.209Z,1.60
2023-04-30T22:07:50.493Z,1.60
2023-04-30T22:10:17.921Z,1.70
2023-04-30T22:12:47.789Z,1.60
2023-04-30T22:15:15.817Z,1.57
2023-04-30T22:17:43.499Z,1.63
2023-04-30T22:20:11.056Z,1.40
2023-04-30T22:22:38.525Z,1.70
2023-04-30T22:25:06.095Z,1.70
2023-04-30T22:27:33.452Z,1.40
2023-04-30T22:30:00.989Z,1.80
2023-04-30T22:32:28.462Z,1.70
2023-04-30T22:34:55.867Z,1.57
2023-04-30T22:37:24.340Z,1.47
2023-04-30T22:39:51.679Z,1.60
2023-04-30T22:42:19.054Z,2.10
2023-04-30T22:44:46.426Z,1.77
2023-04-30T22:47:13.973Z,1.73
2023-04-30T22:49:41.609Z,1.47
2023-04-30T22:52:09.080Z,1.53
2023-04-30T22:54:36.507Z,1.40
2023-04-30T22:57:04.067Z,1.50
2023-04-30T22:59:31.439Z,1.63
2023-04-30T23:01:59.528Z,1.60
2023-04-30T23:04:27.094Z,1.70
2023-04-30T23:06:54.871Z,1.80
2023-04-30T23:09:23.252Z,1.50
2023-04-30T23:11:50.985Z,1.50
2023-04-30T23:14:18.322Z,1.60
2023-04-30T23:16:45.692Z,1.40
2023-04-30T23:19:13.094Z,1.50
2023-04-30T23:21:40.535Z,1.33
2023-04-30T23:24:08.008Z,1.40
2023-04-30T23:26:36.029Z,1.70
2023-04-30T23:29:03.505Z,1.60
2023-04-30T23:31:30.952Z,1.40
2023-04-30T23:33:58.900Z,1.30
2023-04-30T23:36:26.229Z,1.40
2023-04-30T23:38:54.112Z,1.60
2023-04-30T23:41:21.741Z,1.40
2023-04-30T23:43:49.068Z,1.17
2023-04-30T23:46:16.687Z,1.60
2023-04-30T23:48:44.094Z,1.30
2023-04-30T23:51:11.520Z,1.40
2023-04-30T23:53:39.385Z,1.27
2023-04-30T23:56:08.052Z,1.60
2023-04-30T23:58:35.600Z,1.50
